Time;durP1;ratioP1;P1;durP2;ratioP2;P2;SDS_P1;SDS_P2;PMS_P1;PMS_P2;Temp;Humidity;BMP_temperature;BMP_pressure;BME280_temperature;BME280_humidity;BME280_pressure;Samples;Min_cycle;Max_cycle;Signal;HPM_P1;HPM_P2
2021/01/09 00:01:55;;;;;;;19.90;9.80;;;20.10;36.60;;;;;;5085766;28;20513;-74
2021/01/09 00:04:20;;;;;;;13.55;9.93;;;20.00;36.60;;;;;;5088740;28;20028;-74
2021/01/09 00:06:46;;;;;;;16.30;9.75;;;20.00;36.60;;;;;;5057678;28;20403;-74
2021/01/09 00:09:12;;;;;;;11.90;8.50;;;20.00;36.70;;;;;;5084773;28;20040;-73
2021/01/09 00:11:38;;;;;;;13.65;7.57;;;20.00;36.60;;;;;;5091532;28;20039;-74
2021/01/09 00:14:03;;;;;;;13.25;9.98;;;20.00;36.50;;;;;;5083305;28;20040;-73
2021/01/09 00:16:29;;;;;;;8.00;6.30;;;20.00;36.50;;;;;;5086600;28;20016;-75
2021/01/09 00:18:54;;;;;;;19.13;9.98;;;20.00;36.60;;;;;;5084918;28;20025;-76
2021/01/09 00:21:52;;;;;;;16.00;9.10;;;20.00;36.50;;;;;;5065578;28;20051;-73
2021/01/09 00:24:18;;;;;;;12.43;10.25;;;19.90;36.50;;;;;;5081381;28;20032;-71
2021/01/09 00:26:43;;;;;;;8.93;6.93;;;19.90;36.50;;;;;;5088200;28;20550;-74
2021/01/09 00:29:09;;;;;;;15.02;9.65;;;19.90;36.60;;;;;;5080182;28;20131;-75
2021/01/09 00:31:34;;;;;;;13.88;8.88;;;19.90;36.50;;;;;;5073670;28;20067;-74
2021/01/09 00:34:00;;;;;;;12.60;9.73;;;19.90;36.50;;;;;;5100828;28;20028;-71
2021/01/09 00:36:25;;;;;;;13.98;8.65;;;19.90;36.50;;;;;;5091263;28;20024;-74
2021/01/09 00:38:52;;;;;;;22.00;8.90;;;19.90;36.50;;;;;;5074815;28;20020;-73
2021/01/09 00:41:28;;;;;;;19.67;9.68;;;19.90;36.40;;;;;;5079054;28;20031;-74
2021/01/09 00:43:54;;;;;;;10.60;8.50;;;19.90;36.50;;;;;;5091235;28;20084;-73
2021/01/09 00:46:20;;;;;;;20.25;9.90;;;19.90;36.40;;;;;;5064897;28;20030;-72
2021/01/09 00:48:45;;;;;;;17.92;9.38;;;19.90;36.30;;;;;;5066340;28;20550;-73
2021/01/09 00:51:12;;;;;;;14.65;8.32;;;19.90;36.30;;;;;;5081890;28;20039;-74
2021/01/09 00:53:38;;;;;;;11.18;8.00;;;19.90;36.30;;;;;;5068985;28;20032;-73
2021/01/09 00:56:04;;;;;;;17.80;10.18;;;19.90;36.30;;;;;;5083004;28;20030;-73
2021/01/09 00:58:30;;;;;;;19.00;10.65;;;19.90;36.20;;;;;;5061684;28;20515;-73
2021/01/09 01:00:55;;;;;;;25.35;11.23;;;19.80;36.20;;;;;;5076133;28;20039;-72
2021/01/09 01:03:21;;;;;;;13.70;9.57;;;19.80;36.20;;;;;;5095651;28;20052;-72
2021/01/09 01:05:47;;;;;;;22.15;11.27;;;19.80;36.20;;;;;;5085505;28;20442;-73
2021/01/09 01:08:12;;;;;;;24.13;11.13;;;19.80;36.20;;;;;;5074826;28;20024;-72
2021/01/09 01:10:38;;;;;;;22.80;9.88;;;19.80;36.80;;;;;;5076546;28;20123;-71
2021/01/09 01:13:03;;;;;;;12.75;9.48;;;19.80;36.20;;;;;;5088403;28;20024;-72
2021/01/09 01:15:29;;;;;;;22.30;10.82;;;19.80;36.30;;;;;;5057538;28;20031;-72
2021/01/09 01:17:54;;;;;;;22.20;10.50;;;19.80;36.20;;;;;;5069757;28;20092;-72
2021/01/09 01:20:20;;;;;;;29.02;13.25;;;19.80;36.10;;;;;;5061705;28;20040;-72
2021/01/09 01:22:48;;;;;;;11.48;8.95;;;19.80;36.10;;;;;;5074343;28;20075;-72
2021/01/09 01:25:15;;;;;;;25.52;11.35;;;19.80;36.20;;;;;;5086969;28;20012;-73
2021/01/09 01:27:41;;;;;;;32.75;13.40;;;19.70;36.10;;;;;;5097480;28;20025;-71
2021/01/09 01:30:07;;;;;;;15.30;10.98;;;19.70;36.10;;;;;;5081679;28;20450;-72
2021/01/09 01:32:32;;;;;;;22.83;9.48;;;19.70;36.10;;;;;;5069634;28;20111;-72
2021/01/09 01:34:58;;;;;;;18.85;8.30;;;19.70;36.20;;;;;;5068769;28;20059;-71
2021/01/09 01:37:23;;;;;;;21.80;9.20;;;19.70;36.10;;;;;;5093554;28;20025;-73
2021/01/09 01:39:55;;;;;;;8.60;7.70;;;19.70;36.10;;;;;;5091299;28;20028;-73
2021/01/09 01:42:28;;;;;;;25.10;8.63;;;19.70;36.20;;;;;;5085982;28;20028;-72
2021/01/09 01:44:55;;;;;;;26.38;8.18;;;19.60;36.10;;;;;;5076772;28;20101;-72
2021/01/09 01:47:21;;;;;;;8.50;7.35;;;19.60;36.80;;;;;;5087863;28;20020;-73
2021/01/09 01:49:47;;;;;;;20.13;7.97;;;19.60;36.20;;;;;;5064775;28;20088;-73
2021/01/09 01:52:18;;;;;;;14.20;8.05;;;19.60;36.20;;;;;;5070304;28;20050;-73
2021/01/09 01:54:44;;;;;;;8.80;7.22;;;19.60;36.10;;;;;;5073626;28;20099;-74
2021/01/09 01:57:11;;;;;;;5.55;5.03;;;19.60;36.20;;;;;;5074045;28;20118;-73
2021/01/09 01:59:37;;;;;;;14.80;7.85;;;19.60;36.30;;;;;;5076158;28;20828;-73
2021/01/09 02:02:04;;;;;;;12.10;7.55;;;19.60;36.20;;;;;;5091056;28;20056;-72
2021/01/09 02:04:30;;;;;;;10.35;6.93;;;19.50;36.20;;;;;;5091992;28;20027;-73
2021/01/09 02:10:17;;;;;;;17.17;8.13;;;19.50;36.30;;;;;;5084328;28;20100;-72
2021/01/09 02:12:49;;;;;;;7.38;6.63;;;19.50;36.20;;;;;;5068877;28;20482;-73
2021/01/09 02:15:14;;;;;;;20.20;8.02;;;19.50;36.20;;;;;;5075419;28;20400;-72
2021/01/09 02:17:40;;;;;;;12.75;7.18;;;19.50;36.20;;;;;;5065974;28;20036;-72
2021/01/09 02:20:06;;;;;;;7.68;6.88;;;19.50;36.10;;;;;;5090967;28;20449;-72
2021/01/09 02:22:42;;;;;;;17.45;7.32;;;19.50;36.10;;;;;;5054592;28;20039;-72
2021/01/09 02:25:08;;;;;;;;;;;19.50;36.10;;;;;;5057784;28;20036;-73
2021/01/09 02:27:33;;;;;;;7.30;6.55;;;19.50;36.00;;;;;;5066138;28;19908;-73
2021/01/09 02:30:06;;;;;;;6.30;5.13;;;19.50;36.00;;;;;;5095991;28;20330;-72
2021/01/09 02:32:59;;;;;;;16.52;8.15;;;19.50;36.10;;;;;;5083345;28;20482;-73
2021/01/09 02:35:26;;;;;;;7.93;7.00;;;19.50;36.00;;;;;;5070615;28;20117;-73
2021/01/09 02:37:52;;;;;;;5.80;5.15;;;19.50;36.00;;;;;;5070808;28;20059;-75
2021/01/09 02:40:18;;;;;;;18.20;7.82;;;19.50;36.00;;;;;;5064852;28;20024;-72
2021/01/09 02:42:44;;;;;;;17.85;7.07;;;19.40;35.90;;;;;;5057027;28;20033;-73
2021/01/09 02:45:09;;;;;;;6.47;5.78;;;19.40;35.90;;;;;;5059835;28;20046;-74
2021/01/09 02:47:47;;;;;;;11.68;6.68;;;19.50;36.00;;;;;;5089642;28;20024;-72
2021/01/09 02:50:13;;;;;;;21.52;7.32;;;19.50;35.90;;;;;;5098143;28;20110;-71
2021/01/09 02:52:42;;;;;;;7.28;6.35;;;19.40;35.90;;;;;;5092644;28;20095;-69
2021/01/09 02:55:08;;;;;;;16.73;8.07;;;19.40;35.90;;;;;;5067992;28;20052;-69
2021/01/09 02:57:34;;;;;;;13.25;7.80;;;19.40;36.00;;;;;;5056356;28;20434;-71
2021/01/09 03:00:00;;;;;;;8.93;7.20;;;19.40;35.90;;;;;;5081567;28;20028;-70
2021/01/09 03:02:25;;;;;;;5.72;5.13;;;19.40;35.90;;;;;;5085923;28;20024;-71
2021/01/09 03:04:51;;;;;;;14.80;7.97;;;19.40;36.00;;;;;;5091005;28;20529;-71
2021/01/09 03:07:16;;;;;;;10.90;9.30;;;19.40;35.90;;;;;;5093949;28;20028;-70
2021/01/09 03:09:42;;;;;;;8.95;6.63;;;19.40;35.90;;;;;;5069718;28;20036;-70
2021/01/09 03:12:08;;;;;;;11.57;7.38;;;19.40;36.00;;;;;;5065796;28;20099;-71
2021/01/09 03:14:33;;;;;;;11.15;7.22;;;19.40;35.90;;;;;;5066649;28;20081;-71
2021/01/09 03:16:59;;;;;;;9.20;6.97;;;19.30;35.80;;;;;;5064099;28;20097;-71
2021/01/09 03:19:34;;;;;;;15.60;7.82;;;19.30;35.90;;;;;;5092932;28;20020;-69
2021/01/09 03:21:59;;;;;;;13.03;6.87;;;19.30;35.90;;;;;;5071618;28;20039;-69
2021/01/09 03:24:25;;;;;;;8.85;7.00;;;19.30;35.90;;;;;;5084921;28;20274;-68
2021/01/09 03:26:50;;;;;;;19.30;7.05;;;19.30;35.90;;;;;;5089894;28;20115;-69
2021/01/09 03:29:16;;;;;;;19.90;6.63;;;19.30;35.90;;;;;;5073366;28;20067;-70
2021/01/09 03:31:41;;;;;;;6.28;5.68;;;19.30;35.90;;;;;;5090219;28;20035;-70
2021/01/09 03:34:07;;;;;;;13.65;5.05;;;19.20;35.90;;;;;;5087455;28;20020;-70
2021/01/09 03:36:32;;;;;;;8.65;4.22;;;19.20;35.90;;;;;;5086107;28;20032;-70
2021/01/09 03:38:58;;;;;;;4.30;3.97;;;19.20;35.70;;;;;;5055494;28;20052;-68
2021/01/09 03:41:23;;;;;;;21.25;4.80;;;19.20;35.80;;;;;;5082819;28;20372;-68
2021/01/09 03:43:49;;;;;;;17.10;4.95;;;19.20;35.90;;;;;;5073694;28;20047;-69
2021/01/09 03:46:14;;;;;;;4.47;4.07;;;19.20;35.80;;;;;;5073691;28;20048;-70
2021/01/09 03:48:40;;;;;;;19.67;5.68;;;19.20;35.80;;;;;;5075273;28;20538;-71
2021/01/09 03:51:06;;;;;;;14.82;4.82;;;19.20;35.90;;;;;;5092922;28;20502;-72
2021/01/09 03:53:31;;;;;;;6.32;5.30;;;19.20;35.80;;;;;;5090822;28;20016;-70
2021/01/09 03:55:57;;;;;;;5.00;4.22;;;19.20;35.80;;;;;;5051207;28;20080;-71
2021/01/09 03:58:22;;;;;;;18.42;5.20;;;19.20;35.80;;;;;;5074575;28;20071;-70
2021/01/09 04:00:48;;;;;;;9.02;6.50;;;19.20;36.30;;;;;;5065787;28;20040;-70
2021/01/09 04:03:13;;;;;;;4.00;3.60;;;19.20;35.60;;;;;;5099371;28;20023;-73
2021/01/09 04:05:39;;;;;;;18.77;6.63;;;19.20;35.70;;;;;;5098220;28;20036;-71
2021/01/09 04:08:05;;;;;;;9.07;7.68;;;19.20;35.60;;;;;;5095983;28;20115;-71
2021/01/09 04:10:31;;;;;;;5.13;4.60;;;19.20;35.70;;;;;;5085541;28;20028;-71
2021/01/09 04:12:56;;;;;;;8.93;5.57;;;19.20;35.70;;;;;;5088700;28;20107;-68
2021/01/09 04:15:22;;;;;;;10.10;8.02;;;19.10;35.60;;;;;;5093509;28;20107;-68
2021/01/09 04:17:47;;;;;;;6.20;5.07;;;19.20;35.50;;;;;;5059599;28;20071;-70
2021/01/09 04:20:13;;;;;;;19.10;6.03;;;19.10;35.60;;;;;;5077652;28;20024;-70
2021/01/09 04:22:39;;;;;;;9.30;7.57;;;19.10;35.50;;;;;;5062050;28;20491;-69
2021/01/09 04:25:05;;;;;;;5.45;4.75;;;19.10;35.40;;;;;;5075073;28;20032;-70
2021/01/09 04:27:30;;;;;;;17.70;6.00;;;19.10;35.60;;;;;;5086225;28;20028;-71
2021/01/09 04:29:56;;;;;;;8.52;6.43;;;19.10;35.50;;;;;;5095618;28;20059;-70
2021/01/09 04:32:22;;;;;;;4.57;3.97;;;19.10;35.50;;;;;;5069179;28;20037;-70
2021/01/09 04:34:48;;;;;;;29.70;5.28;;;19.10;35.60;;;;;;5080000;28;20043;-71
2021/01/09 04:37:14;;;;;;;31.55;5.65;;;19.10;35.40;;;;;;5095808;28;20073;-71
2021/01/09 04:39:40;;;;;;;4.20;3.80;;;19.10;35.50;;;;;;5072107;28;20028;-72
2021/01/09 04:42:05;;;;;;;14.73;4.85;;;19.10;35.50;;;;;;5078281;28;20043;-73
2021/01/09 04:44:31;;;;;;;13.68;5.00;;;19.10;35.50;;;;;;5097077;28;20032;-72
2021/01/09 04:46:57;;;;;;;4.80;4.35;;;19.10;35.50;;;;;;5094407;28;20059;-72
2021/01/09 04:49:24;;;;;;;22.13;5.45;;;19.00;35.50;;;;;;5075108;28;20032;-70
2021/01/09 04:51:50;;;;;;;8.45;4.65;;;19.00;35.60;;;;;;5076495;28;20036;-71
2021/01/09 04:54:20;;;;;;;6.25;4.68;;;19.00;35.40;;;;;;5091121;28;20491;-70
2021/01/09 04:56:47;;;;;;;22.30;5.03;;;19.00;35.50;;;;;;5074605;28;20107;-71
2021/01/09 04:59:13;;;;;;;13.32;4.82;;;19.00;35.50;;;;;;5076176;28;20083;-72
2021/01/09 05:01:43;;;;;;;5.38;4.75;;;19.00;35.40;;;;;;5055618;28;20053;-71
2021/01/09 05:04:09;;;;;;;0.85;0.82;;;19.00;35.50;;;;;;5055901;28;20027;-74
2021/01/09 05:06:36;;;;;;;10.57;6.43;;;18.90;35.60;;;;;;5061388;28;20115;-74
2021/01/09 05:09:01;;;;;;;3.67;3.28;;;18.90;35.50;;;;;;5078999;28;20111;-73
2021/01/09 05:11:30;;;;;;;2.38;1.00;;;18.90;35.70;;;;;;5063240;28;20070;-72
2021/01/09 05:13:56;;;;;;;5.38;4.72;;;18.90;35.60;;;;;;5078880;28;20036;-75
2021/01/09 05:16:21;;;;;;;2.47;0.90;;;18.90;35.70;;;;;;5060498;28;20035;-74
2021/01/09 05:18:47;;;;;;;5.20;4.70;;;18.90;35.70;;;;;;5070396;28;20035;-74
2021/01/09 05:21:13;;;;;;;1.15;1.00;;;18.90;35.70;;;;;;5091956;28;20029;-73
2021/01/09 05:23:53;;;;;;;6.57;5.18;;;18.90;35.80;;;;;;5059376;28;20514;-73
2021/01/09 05:26:20;;;;;;;1.60;1.05;;;18.90;35.60;;;;;;5075671;28;20114;-71
2021/01/09 05:28:55;;;;;;;9.82;3.97;;;18.90;35.80;;;;;;5073738;28;20051;-73
2021/01/09 05:31:22;;;;;;;9.82;3.80;;;18.90;35.70;;;;;;5076784;28;20028;-74
2021/01/09 05:33:48;;;;;;;3.22;1.08;;;18.90;35.90;;;;;;5071572;28;20036;-73
2021/01/09 05:36:14;;;;;;;5.72;4.70;;;18.90;35.90;;;;;;5075815;28;20047;-73
2021/01/09 05:38:41;;;;;;;1.42;0.88;;;18.90;35.80;;;;;;5039744;28;20029;-75
2021/01/09 05:41:07;;;;;;;4.63;4.22;;;18.90;35.90;;;;;;5080202;28;20032;-75
2021/01/09 05:43:33;;;;;;;0.90;0.85;;;18.90;35.80;;;;;;5080362;28;20028;-76
2021/01/09 05:45:59;;;;;;;6.75;5.60;;;18.90;35.90;;;;;;5081237;28;20110;-75
2021/01/09 05:48:28;;;;;;;3.70;2.30;;;18.90;35.80;;;;;;5046938;28;20039;-75
2021/01/09 05:50:54;;;;;;;3.45;2.35;;;18.90;35.90;;;;;;5063513;28;20043;-76
2021/01/09 05:53:40;;;;;;;5.72;3.40;;;18.90;35.90;;;;;;5057337;28;20035;-76
2021/01/09 05:56:06;;;;;;;1.90;1.05;;;18.80;35.90;;;;;;5077089;28;20440;-75
2021/01/09 05:58:32;;;;;;;5.10;4.35;;;18.80;35.80;;;;;;5060064;28;20059;-74
2021/01/09 06:00:58;;;;;;;1.60;1.20;;;18.80;35.80;;;;;;5072125;28;20032;-74
2021/01/09 06:03:33;;;;;;;6.72;5.18;;;18.80;35.90;;;;;;5079634;28;20493;-73
2021/01/09 06:05:59;;;;;;;1.73;1.17;;;18.80;35.80;;;;;;5092248;28;20031;-73
2021/01/09 06:08:27;;;;;;;7.32;5.95;;;18.80;36.00;;;;;;5055208;28;20833;-74
2021/01/09 06:10:56;;;;;;;1.23;0.80;;;18.80;35.80;;;;;;5071289;28;20041;-73
2021/01/09 06:13:21;;;;;;;9.68;6.85;;;18.80;36.00;;;;;;5060187;28;20008;-73
2021/01/09 06:15:47;;;;;;;3.85;3.55;;;18.80;35.90;;;;;;5059033;28;20499;-74
2021/01/09 06:18:12;;;;;;;2.00;1.02;;;18.80;36.00;;;;;;5055984;28;20491;-73
2021/01/09 06:20:38;;;;;;;4.70;4.13;;;18.80;35.90;;;;;;5053268;28;20031;-73
2021/01/09 06:23:03;;;;;;;1.90;1.02;;;18.80;36.00;;;;;;5058640;28;20032;-73
2021/01/09 06:25:29;;;;;;;6.97;5.57;;;18.80;36.00;;;;;;5055983;28;20459;-73
2021/01/09 06:27:56;;;;;;;0.60;0.60;;;18.70;36.00;;;;;;5059237;28;20048;-73
2021/01/09 06:30:22;;;;;;;8.75;6.50;;;18.70;36.10;;;;;;5056266;28;20048;-73
2021/01/09 06:32:53;;;;;;;2.10;1.02;;;18.70;35.90;;;;;;5058421;28;20032;-73
2021/01/09 06:35:19;;;;;;;7.75;6.25;;;18.70;36.20;;;;;;5058265;28;20564;-73
2021/01/09 06:41:10;;;;;;;8.80;6.60;;;18.80;36.10;;;;;;5089092;28;20027;-72
2021/01/09 06:44:05;;;;;;;1.65;0.85;;;18.80;35.90;;;;;;5057342;28;20032;-72
2021/01/09 06:46:31;;;;;;;8.93;6.25;;;18.90;35.90;;;;;;5076442;28;20099;-73
2021/01/09 06:48:57;;;;;;;0.55;0.50;;;19.00;35.80;;;;;;5075599;28;20493;-74
2021/01/09 06:51:32;;;;;;;8.98;5.60;;;19.00;35.60;;;;;;5071857;28;20460;-74
2021/01/09 06:54:24;;;;;;;0.60;0.60;;;19.10;35.40;;;;;;5088107;28;20020;-71
2021/01/09 06:57:01;;;;;;;10.30;5.90;;;19.20;35.30;;;;;;5068479;28;20303;-71
2021/01/09 06:59:37;;;;;;;0.90;0.80;;;19.30;35.10;;;;;;5058643;28;20029;-74
2021/01/09 07:02:21;;;;;;;9.70;6.45;;;19.40;34.90;;;;;;5088191;28;20020;-71
2021/01/09 07:05:00;;;;;;;0.77;0.70;;;19.50;34.70;;;;;;5074595;28;20039;-74
2021/01/09 07:07:33;;;;;;;10.73;6.18;;;19.60;34.50;;;;;;5070026;28;20017;-72
2021/01/09 07:10:31;;;;;;;6.03;3.58;;;19.70;34.30;;;;;;5062797;28;20021;-71
2021/01/09 07:13:05;;;;;;;7.20;3.40;;;19.90;34.30;;;;;;5079897;28;20051;-71
2021/01/09 07:15:32;;;;;;;4.65;3.38;;;20.00;34.00;;;;;;5066438;28;20020;-71
2021/01/09 07:17:59;;;;;;;1.02;0.60;;;20.00;33.80;;;;;;5064686;28;20036;-71
2021/01/09 07:20:30;;;;;;;7.22;4.65;;;20.10;33.70;;;;;;5060004;28;20024;-72
2021/01/09 07:23:04;;;;;;;0.88;0.82;;;20.10;34.30;;;;;;5067821;28;20142;-72
2021/01/09 07:25:34;;;;;;;9.18;5.72;;;20.20;33.70;;;;;;5060267;28;20479;-72
2021/01/09 07:28:02;;;;;;;0.88;0.80;;;20.20;33.60;;;;;;5070074;28;20012;-71
2021/01/09 07:30:28;;;;;;;10.98;5.97;;;20.20;33.60;;;;;;5086562;28;20515;-71
2021/01/09 07:32:54;;;;;;;0.65;0.63;;;20.20;33.60;;;;;;5080743;28;20024;-71
2021/01/09 07:35:25;;;;;;;13.57;7.18;;;20.20;33.60;;;;;;5072852;28;20025;-71
2021/01/09 07:37:55;;;;;;;0.77;0.77;;;20.20;33.60;;;;;;5086230;28;20414;-72
2021/01/09 07:40:21;;;;;;;14.05;8.98;;;20.30;33.50;;;;;;5085243;28;20406;-70
2021/01/09 07:42:47;;;;;;;4.47;2.38;;;20.30;33.50;;;;;;5090039;28;20089;-72
2021/01/09 07:45:18;;;;;;;0.73;0.70;;;20.30;33.60;;;;;;5095533;28;20021;-72
2021/01/09 07:47:45;;;;;;;5.68;4.18;;;20.30;33.60;;;;;;5055895;28;20081;-73
2021/01/09 07:50:12;;;;;;;1.02;0.80;;;20.30;33.60;;;;;;5082477;28;20028;-73
2021/01/09 07:52:41;;;;;;;12.30;7.63;;;20.30;33.50;;;;;;5073852;28;20040;-71
2021/01/09 07:55:08;;;;;;;0.95;0.65;;;20.30;33.60;;;;;;5070851;28;20414;-73
2021/01/09 07:57:34;;;;;;;12.80;8.80;;;20.30;33.60;;;;;;5090427;28;20043;-72
2021/01/09 08:00:01;;;;;;;0.35;0.35;;;20.30;34.20;;;;;;5071035;28;20081;-72
2021/01/09 08:02:30;;;;;;;13.93;8.65;;;20.30;33.50;;;;;;5070214;28;20046;-73
2021/01/09 08:05:05;;;;;;;5.40;0.68;;;20.30;33.50;;;;;;5095418;27;20032;-72
2021/01/09 08:07:31;;;;;;;16.53;10.13;;;20.30;33.50;;;;;;5068590;28;20040;-75
2021/01/09 08:09:58;;;;;;;11.70;6.05;;;20.30;33.40;;;;;;5090238;28;20332;-73
2021/01/09 08:12:27;;;;;;;1.77;0.95;;;20.30;33.40;;;;;;5068460;28;20028;-73
2021/01/09 08:14:52;;;;;;;9.10;6.65;;;20.30;33.40;;;;;;5065119;28;20115;-74
2021/01/09 08:17:20;;;;;;;1.33;0.70;;;20.30;33.40;;;;;;5076250;28;20104;-73
2021/01/09 08:19:46;;;;;;;12.15;8.13;;;20.30;33.60;;;;;;5073461;28;20483;-74
2021/01/09 08:22:15;;;;;;;0.63;0.63;;;20.30;33.60;;;;;;5065505;28;20042;-73
2021/01/09 08:24:40;;;;;;;16.50;10.60;;;20.20;33.50;;;;;;5063998;28;20036;-73
2021/01/09 08:27:06;;;;;;;1.85;0.90;;;20.30;33.50;;;;;;5086340;28;20073;-73
2021/01/09 08:29:32;;;;;;;3.90;0.70;;;20.30;33.60;;;;;;5066854;28;20051;-72
2021/01/09 08:31:57;;;;;;;9.18;5.28;;;20.30;33.60;;;;;;5069787;28;20028;-73
2021/01/09 08:34:23;;;;;;;0.75;0.43;;;20.30;33.60;;;;;;5077827;28;20028;-73
2021/01/09 08:36:52;;;;;;;11.35;6.63;;;20.30;33.50;;;;;;5078025;28;20024;-73
2021/01/09 08:39:18;;;;;;;1.65;0.75;;;20.30;33.50;;;;;;5068334;28;20045;-71
2021/01/09 08:41:43;;;;;;;13.35;8.60;;;20.30;33.50;;;;;;5098655;28;20020;-70
2021/01/09 08:44:10;;;;;;;9.18;5.22;;;20.30;33.50;;;;;;5097892;28;20509;-70
2021/01/09 08:46:36;;;;;;;1.83;1.02;;;20.30;33.60;;;;;;5065229;28;20054;-70
2021/01/09 08:49:02;;;;;;;10.35;6.40;;;20.30;33.60;;;;;;5092276;28;20462;-70
2021/01/09 08:51:28;;;;;;;0.15;0.15;;;20.40;33.80;;;;;;5088842;28;20038;-70
2021/01/09 08:54:06;;;;;;;14.73;7.95;;;20.40;33.70;;;;;;5092760;28;20024;-70
2021/01/09 08:56:32;;;;;;;3.72;0.60;;;20.50;33.60;;;;;;5058606;28;20040;-69
2021/01/09 08:59:05;;;;;;;18.33;10.38;;;20.50;33.50;;;;;;5094863;28;20020;-70
2021/01/09 09:01:56;;;;;;;1.08;0.35;;;20.50;33.50;;;;;;5088393;28;20064;-71
2021/01/09 09:04:21;;;;;;;17.73;10.00;;;20.50;33.50;;;;;;5079773;28;20028;-70
2021/01/09 09:06:53;;;;;;;11.40;6.47;;;20.50;33.50;;;;;;5054448;28;20393;-70
2021/01/09 09:09:18;;;;;;;0.93;0.77;;;20.50;33.40;;;;;;5060633;28;20090;-69
2021/01/09 09:11:51;;;;;;;14.25;8.38;;;20.50;33.40;;;;;;5091475;28;20020;-70
2021/01/09 09:14:17;;;;;;;2.55;0.80;;;20.50;33.40;;;;;;5073446;28;20043;-70
2021/01/09 09:16:42;;;;;;;13.25;8.70;;;20.50;33.30;;;;;;5095946;28;20055;-73
2021/01/09 09:19:11;;;;;;;0.30;0.30;;;20.60;33.30;;;;;;5062483;28;20016;-73
2021/01/09 09:21:47;;;;;;;2.47;1.38;;;20.50;33.30;;;;;;5085296;28;20457;-73
2021/01/09 09:24:13;;;;;;;;;;;20.50;33.30;;;;;;5069733;28;20026;-72
2021/01/09 09:26:38;;;;;;;0.85;0.80;;;20.50;33.20;;;;;;5091149;28;19955;-72
2021/01/09 09:29:04;;;;;;;16.00;8.75;;;20.50;33.20;;;;;;5072326;28;20058;-73
2021/01/09 09:31:30;;;;;;;4.35;0.77;;;20.50;33.20;;;;;;5062028;28;20107;-73
2021/01/09 09:34:06;;;;;;;0.88;0.80;;;20.50;33.20;;;;;;5109686;28;20016;-73
2021/01/09 09:36:33;;;;;;;19.90;10.38;;;20.50;33.20;;;;;;5076692;28;20028;-71
2021/01/09 09:39:09;;;;;;;1.58;0.88;;;20.50;33.10;;;;;;5068157;28;20032;-73
2021/01/09 09:41:48;;;;;;;16.23;9.88;;;20.50;33.20;;;;;;5060603;28;20108;-73
2021/01/09 09:44:13;;;;;;;1.73;1.20;;;20.50;33.20;;;;;;5081025;28;20032;-73
2021/01/09 09:46:42;;;;;;;2.45;0.73;;;20.50;33.10;;;;;;5070340;28;20028;-72
2021/01/09 09:49:08;;;;;;;10.18;7.22;;;20.50;33.10;;;;;;5089677;28;20075;-73
2021/01/09 09:51:35;;;;;;;0.88;0.85;;;20.50;33.20;;;;;;5066998;28;20055;-73
2021/01/09 09:54:00;;;;;;;17.13;9.70;;;20.50;33.10;;;;;;5047573;28;20020;-72
2021/01/09 09:56:26;;;;;;;0.70;0.55;;;20.50;33.10;;;;;;5085446;28;20180;-73
2021/01/09 09:59:05;;;;;;;1.95;0.85;;;20.50;33.00;;;;;;5088246;28;20099;-72
2021/01/09 10:01:31;;;;;;;14.07;9.48;;;20.50;33.10;;;;;;5082384;28;20434;-73
2021/01/09 10:07:20;;;;;;;15.73;10.25;;;20.50;33.10;;;;;;5090216;28;20522;-73
2021/01/09 10:09:46;;;;;;;3.83;1.27;;;20.50;33.10;;;;;;5074819;28;20028;-73
2021/01/09 10:12:11;;;;;;;1.80;1.40;;;20.50;33.10;;;;;;5065231;28;20026;-73
2021/01/09 10:14:37;;;;;;;16.75;10.90;;;20.50;33.00;;;;;;5094222;28;20020;-72
2021/01/09 10:17:03;;;;;;;1.45;1.15;;;20.50;33.10;;;;;;5070403;28;20049;-72
2021/01/09 10:22:50;;;;;;;14.48;9.70;;;20.50;33.00;;;;;;5085252;28;20046;-71
2021/01/09 10:25:16;;;;;;;4.45;1.27;;;20.50;33.00;;;;;;5070688;28;20115;-69
2021/01/09 10:27:42;;;;;;;1.25;0.70;;;20.50;33.10;;;;;;5073235;28;20027;-72
2021/01/09 10:30:08;;;;;;;14.43;9.23;;;20.50;33.10;;;;;;5075532;28;20546;-72
2021/01/09 10:32:33;;;;;;;8.93;5.85;;;20.50;33.10;;;;;;5097326;28;20035;-72
2021/01/09 10:34:59;;;;;;;1.92;0.75;;;20.60;33.10;;;;;;5091499;28;20063;-72
2021/01/09 10:37:25;;;;;;;1.08;0.98;;;20.60;33.00;;;;;;5096177;28;20031;-73
2021/01/09 10:39:50;;;;;;;12.60;8.63;;;20.60;33.00;;;;;;5092567;28;20145;-71
2021/01/09 10:42:16;;;;;;;2.10;0.88;;;20.60;33.10;;;;;;5093234;28;20522;-71
2021/01/09 10:44:41;;;;;;;4.35;1.60;;;20.60;33.20;;;;;;5090988;28;20046;-68
2021/01/09 10:47:07;;;;;;;1.80;0.90;;;20.60;33.10;;;;;;5091891;28;20042;-69
2021/01/09 10:49:33;;;;;;;15.93;10.95;;;20.60;33.10;;;;;;5071829;28;20089;-69
2021/01/09 10:51:59;;;;;;;9.85;6.28;;;20.60;33.10;;;;;;5071823;28;20522;-68
2021/01/09 10:54:24;;;;;;;1.70;0.93;;;20.60;33.20;;;;;;5089479;28;20027;-68
2021/01/09 10:56:50;;;;;;;2.20;1.05;;;20.60;33.10;;;;;;5087145;28;20052;-69
2021/01/09 10:59:15;;;;;;;1.27;1.05;;;20.60;33.20;;;;;;5088669;28;20085;-69
2021/01/09 11:01:41;;;;;;;1.52;0.95;;;20.60;33.30;;;;;;5092342;28;20038;-69
2021/01/09 11:04:06;;;;;;;1.98;1.52;;;20.50;33.40;;;;;;5092397;28;20039;-69
2021/01/09 11:06:32;;;;;;;2.72;1.38;;;20.50;33.50;;;;;;5078088;28;20056;-69
2021/01/09 11:08:57;;;;;;;2.67;1.02;;;20.50;33.60;;;;;;5089905;28;20040;-68
2021/01/09 11:11:23;;;;;;;1.38;0.70;;;20.50;33.60;;;;;;5093036;28;20390;-69
2021/01/09 11:13:49;;;;;;;2.05;1.08;;;20.50;33.70;;;;;;5057645;28;20491;-69
2021/01/09 11:16:19;;;;;;;2.45;1.27;;;20.50;33.70;;;;;;5067777;28;20451;-70
2021/01/09 11:18:44;;;;;;;2.50;1.05;;;20.50;33.70;;;;;;5052328;28;20028;-69
2021/01/09 11:21:10;;;;;;;1.50;0.93;;;20.50;33.80;;;;;;5074393;28;20059;-69
2021/01/09 11:23:35;;;;;;;3.38;1.38;;;20.50;33.90;;;;;;5092083;28;20067;-69
2021/01/09 11:26:01;;;;;;;0.95;0.95;;;20.50;34.00;;;;;;5054415;28;20044;-69
2021/01/09 11:28:26;;;;;;;0.63;0.63;;;20.50;34.00;;;;;;5083069;28;20036;-70
2021/01/09 11:30:52;;;;;;;2.50;1.42;;;20.50;33.90;;;;;;5089838;28;20024;-72
2021/01/09 11:33:17;;;;;;;0.63;0.55;;;20.40;33.90;;;;;;5098935;28;20503;-73
2021/01/09 11:35:43;;;;;;;3.22;1.98;;;20.50;34.00;;;;;;5094441;28;20012;-73
2021/01/09 11:38:09;;;;;;;1.45;1.05;;;20.50;34.00;;;;;;5095067;28;20036;-73
2021/01/09 11:40:34;;;;;;;4.70;2.20;;;20.50;33.90;;;;;;5098187;28;20043;-74
2021/01/09 11:43:00;;;;;;;4.22;1.30;;;20.60;34.00;;;;;;5098203;28;20085;-74
2021/01/09 11:45:25;;;;;;;3.22;1.30;;;20.50;33.90;;;;;;5095767;28;20031;-73
2021/01/09 11:47:51;;;;;;;4.00;1.33;;;20.50;33.90;;;;;;5095527;28;20755;-73
2021/01/09 11:50:17;;;;;;;2.75;1.20;;;20.60;33.80;;;;;;5058582;28;20036;-73
2021/01/09 11:52:43;;;;;;;1.90;1.27;;;20.60;33.90;;;;;;5092463;28;20020;-74
2021/01/09 11:55:09;;;;;;;2.78;1.63;;;20.60;33.90;;;;;;5093244;28;20107;-73
2021/01/09 11:57:53;;;;;;;2.08;1.05;;;20.60;34.00;;;;;;5094411;28;20016;-74
2021/01/09 12:00:20;;;;;;;2.28;1.23;;;20.60;34.00;;;;;;5095314;28;20514;-72
2021/01/09 12:02:45;;;;;;;2.22;1.30;;;20.60;33.90;;;;;;5074159;28;20060;-74
2021/01/09 12:05:11;;;;;;;2.22;1.45;;;20.70;33.90;;;;;;5072986;28;20129;-74
2021/01/09 12:07:36;;;;;;;2.00;1.23;;;20.60;33.90;;;;;;5074635;28;20042;-74
2021/01/09 12:10:03;;;;;;;1.45;0.95;;;20.70;33.90;;;;;;5092958;28;20081;-74
2021/01/09 12:12:29;;;;;;;1.30;0.95;;;20.70;33.90;;;;;;5067490;28;20028;-74
2021/01/09 12:14:54;;;;;;;2.95;1.55;;;20.70;33.90;;;;;;5071622;28;20027;-74
2021/01/09 12:17:20;;;;;;;2.95;1.70;;;20.70;34.00;;;;;;5083872;28;20020;-74
2021/01/09 12:19:45;;;;;;;1.88;1.27;;;20.70;34.00;;;;;;5074432;28;20048;-74
2021/01/09 12:22:11;;;;;;;0.80;0.73;;;20.70;34.00;;;;;;5078337;28;20033;-74
2021/01/09 12:24:37;;;;;;;1.08;0.98;;;20.70;34.00;;;;;;5096160;28;20028;-74
2021/01/09 12:27:02;;;;;;;2.20;1.25;;;20.70;34.10;;;;;;5096434;28;20078;-74
2021/01/09 12:29:28;;;;;;;2.55;1.20;;;20.60;34.10;;;;;;5095089;28;20039;-74
2021/01/09 12:31:54;;;;;;;2.00;1.30;;;20.70;34.20;;;;;;5079304;28;20035;-74
2021/01/09 12:34:19;;;;;;;2.42;1.20;;;20.60;34.20;;;;;;5096798;28;20044;-74
2021/01/09 12:36:49;;;;;;;2.25;1.25;;;20.60;34.20;;;;;;5091422;28;20025;-73
2021/01/09 12:39:15;;;;;;;3.83;1.52;;;20.60;34.20;;;;;;5078880;28;20047;-74
2021/01/09 12:41:40;;;;;;;3.75;1.48;;;20.70;35.30;;;;;;5096172;28;20487;-74
2021/01/09 12:44:06;;;;;;;2.17;1.17;;;20.70;34.50;;;;;;5090742;28;20064;-74
2021/01/09 12:46:44;;;;;;;1.20;0.82;;;20.60;34.50;;;;;;5079133;28;20484;-74
2021/01/09 12:49:14;;;;;;;2.80;1.42;;;20.60;34.50;;;;;;5083057;28;20032;-73
2021/01/09 12:51:40;;;;;;;2.83;2.03;;;20.60;34.30;;;;;;5098246;28;20077;-74
2021/01/09 12:54:06;;;;;;;1.10;1.02;;;20.60;34.20;;;;;;5076562;28;20445;-74
2021/01/09 12:56:32;;;;;;;2.20;1.25;;;20.60;34.30;;;;;;5062324;28;20039;-73
2021/01/09 12:59:16;;;;;;;2.90;1.63;;;20.60;34.30;;;;;;5062256;28;20042;-73